createdAt,value
2022-07-28T00:00:14.459Z,0.00
2022-07-28T00:01:14.556Z,0.00
2022-07-28T00:02:14.792Z,0.00
2022-07-28T00:03:14.837Z,0.00
2022-07-28T00:04:15.203Z,0.00
2022-07-28T00:05:14.965Z,0.00
2022-07-28T00:06:15.027Z,0.00
2022-07-28T00:07:15.117Z,0.00
2022-07-28T00:08:15.210Z,0.00
2022-07-28T00:09:14.264Z,0.00
2022-07-28T00:10:14.375Z,0.00
2022-07-28T00:11:14.464Z,0.00
2022-07-28T00:12:14.338Z,0.00
2022-07-28T00:13:14.447Z,0.00
2022-07-28T00:14:14.733Z,0.00
2022-07-28T00:15:14.628Z,0.00
2022-07-28T00:16:14.759Z,0.00
2022-07-28T00:17:14.818Z,0.00
2022-07-28T00:18:14.930Z,0.00
2022-07-28T00:19:15.013Z,0.00
2022-07-28T00:20:15.102Z,0.00
2022-07-28T00:21:14.168Z,0.00
2022-07-28T00:22:14.199Z,0.00
2022-07-28T00:23:14.298Z,0.00
2022-07-28T00:24:14.882Z,0.00
2022-07-28T00:25:14.468Z,0.00
2022-07-28T00:26:14.311Z,0.00
2022-07-28T00:27:14.221Z,0.00
2022-07-28T00:28:14.279Z,0.00
2022-07-28T00:29:14.340Z,0.00
2022-07-28T00:30:14.514Z,0.00
2022-07-28T00:31:14.558Z,0.00
2022-07-28T00:32:14.500Z,0.00
2022-07-28T00:33:14.553Z,0.00
2022-07-28T00:34:15.018Z,0.00
2022-07-28T00:35:14.956Z,0.00
2022-07-28T00:36:14.787Z,0.00
2022-07-28T00:37:15.242Z,0.00
2022-07-28T00:38:14.411Z,0.00
2022-07-28T00:39:14.003Z,0.00
2022-07-28T00:40:14.085Z,0.00
2022-07-28T00:41:14.163Z,0.00
2022-07-28T00:42:14.265Z,0.00
2022-07-28T00:43:14.334Z,0.00
2022-07-28T00:44:14.785Z,0.00
2022-07-28T00:45:14.512Z,0.00
2022-07-28T00:46:14.679Z,0.00
2022-07-28T00:47:15.274Z,0.00
2022-07-28T00:48:13.737Z,0.00
2022-07-28T00:49:13.871Z,0.00
2022-07-28T00:50:13.869Z,0.00
2022-07-28T00:51:13.951Z,0.00
2022-07-28T00:52:14.041Z,0.00
2022-07-28T00:53:14.160Z,0.00
2022-07-28T00:54:14.725Z,0.00
2022-07-28T00:55:14.284Z,0.00
2022-07-28T00:56:14.356Z,0.00
2022-07-28T00:57:14.435Z,0.00
2022-07-28T00:58:14.545Z,0.00
2022-07-28T00:59:14.576Z,0.00
2022-07-28T01:00:13.624Z,0.00
2022-07-28T01:01:13.786Z,0.00
2022-07-28T01:02:13.860Z,0.00
2022-07-28T01:03:13.923Z,0.00
2022-07-28T01:04:14.322Z,0.00
2022-07-28T01:05:14.009Z,0.00
2022-07-28T01:06:14.053Z,0.00
2022-07-28T01:07:14.123Z,0.00
2022-07-28T01:08:14.195Z,0.00
2022-07-28T01:09:14.267Z,0.00
2022-07-28T01:10:14.334Z,0.00
2022-07-28T01:11:14.387Z,0.00
2022-07-28T01:12:13.417Z,0.00
2022-07-28T01:13:13.493Z,0.00
2022-07-28T01:14:13.931Z,0.00
2022-07-28T01:15:13.634Z,0.00
2022-07-28T01:16:13.731Z,0.00
2022-07-28T01:17:13.843Z,0.00
2022-07-28T01:18:13.850Z,0.00
2022-07-28T01:19:13.966Z,0.00
2022-07-28T01:20:13.985Z,0.00
2022-07-28T01:21:14.063Z,0.00
2022-07-28T01:22:14.129Z,0.00
2022-07-28T01:23:14.208Z,0.00
2022-07-28T01:24:13.600Z,0.00
2022-07-28T01:25:13.343Z,0.00
2022-07-28T01:26:13.378Z,0.00
2022-07-28T01:27:13.459Z,0.00
2022-07-28T01:28:13.610Z,0.00
2022-07-28T01:29:13.577Z,0.00
2022-07-28T01:30:13.674Z,0.00
2022-07-28T01:31:13.821Z,0.00
2022-07-28T01:32:13.767Z,0.00
2022-07-28T01:33:13.838Z,0.00
2022-07-28T01:34:14.326Z,0.00
2022-07-28T01:35:14.051Z,0.00
2022-07-28T01:36:14.050Z,0.00
2022-07-28T01:37:14.090Z,0.00
2022-07-28T01:38:13.123Z,0.00
2022-07-28T01:39:13.201Z,0.00
2022-07-28T01:40:13.307Z,0.00
2022-07-28T01:41:13.401Z,0.00
2022-07-28T01:42:13.439Z,0.00
2022-07-28T01:43:13.591Z,0.00
2022-07-28T01:44:14.001Z,0.00
2022-07-28T01:45:13.692Z,0.00
2022-07-28T01:46:14.622Z,0.00
2022-07-28T01:47:13.902Z,0.00
2022-07-28T01:48:13.949Z,0.00
2022-07-28T01:49:13.051Z,0.00
2022-07-28T01:50:13.123Z,0.00
2022-07-28T01:51:13.232Z,0.00
2022-07-28T01:52:13.349Z,0.00
2022-07-28T01:53:13.420Z,0.00
2022-07-28T01:54:13.820Z,0.00
2022-07-28T01:55:13.604Z,0.00
2022-07-28T01:56:13.677Z,0.00
2022-07-28T01:57:13.804Z,0.00
2022-07-28T01:58:12.861Z,0.00
2022-07-28T01:59:12.933Z,0.00
2022-07-28T02:00:13.022Z,0.00
2022-07-28T02:01:13.189Z,0.00
2022-07-28T02:02:13.202Z,0.00
2022-07-28T02:03:13.312Z,0.00
2022-07-28T02:04:13.645Z,0.00
2022-07-28T02:05:13.481Z,0.00
2022-07-28T02:06:13.532Z,0.00
2022-07-28T02:07:13.597Z,0.00
2022-07-28T02:08:13.852Z,0.00
2022-07-28T02:09:13.761Z,0.00
2022-07-28T02:10:12.821Z,0.00
2022-07-28T02:11:12.743Z,0.00
2022-07-28T02:12:12.834Z,0.00
2022-07-28T02:13:12.883Z,0.00
2022-07-28T02:14:13.302Z,0.00
2022-07-28T02:15:13.073Z,0.00
2022-07-28T02:16:13.143Z,0.00
2022-07-28T02:17:13.175Z,0.00
2022-07-28T02:18:13.324Z,0.00
2022-07-28T02:19:13.506Z,0.00
2022-07-28T02:20:13.426Z,0.00
2022-07-28T02:21:13.520Z,0.00
2022-07-28T02:22:12.575Z,0.00
2022-07-28T02:23:12.671Z,0.00
2022-07-28T02:24:13.132Z,0.00
2022-07-28T02:25:12.909Z,0.00
2022-07-28T02:26:12.955Z,0.00
2022-07-28T02:27:13.050Z,0.00
2022-07-28T02:28:13.134Z,0.00
2022-07-28T02:29:27.633Z,0.00
2022-07-28T02:30:14.385Z,0.00
2022-07-28T02:31:12.414Z,0.00
2022-07-28T02:32:24.080Z,0.00
2022-07-28T02:33:13.587Z,0.00
2022-07-28T02:34:12.890Z,0.00
2022-07-28T02:35:12.818Z,0.00
2022-07-28T02:36:14.227Z,0.00
2022-07-28T02:37:12.413Z,0.00
2022-07-28T02:38:12.508Z,0.00
2022-07-28T02:39:12.576Z,0.00
2022-07-28T02:40:12.657Z,0.00
2022-07-28T02:41:12.731Z,0.00
2022-07-28T02:42:12.827Z,0.00
2022-07-28T02:43:12.879Z,0.00
2022-07-28T02:44:13.141Z,0.00
2022-07-28T02:45:13.032Z,0.00
2022-07-28T02:46:13.212Z,0.00
2022-07-28T02:47:12.146Z,0.00
2022-07-28T02:48:12.247Z,0.00
2022-07-28T02:49:12.389Z,0.00
2022-07-28T02:50:12.387Z,0.00
2022-07-28T02:51:12.465Z,0.00
2022-07-28T02:52:12.525Z,0.00
2022-07-28T02:53:15.110Z,0.00
2022-07-28T02:54:12.998Z,0.00
2022-07-28T02:55:12.807Z,0.00
2022-07-28T02:56:12.886Z,0.00
2022-07-28T02:57:12.998Z,0.00
2022-07-28T02:58:12.047Z,0.00
2022-07-28T02:59:12.178Z,0.00
2022-07-28T03:00:12.256Z,0.00
2022-07-28T03:01:12.500Z,0.00
2022-07-28T03:02:12.469Z,0.00
2022-07-28T03:03:12.581Z,0.00
2022-07-28T03:04:12.996Z,0.00
2022-07-28T03:05:12.843Z,0.00
2022-07-28T03:06:11.895Z,0.00
2022-07-28T03:07:11.999Z,0.00
2022-07-28T03:08:12.140Z,0.00
2022-07-28T03:09:12.223Z,0.00
2022-07-28T03:10:12.369Z,0.00
2022-07-28T03:11:12.441Z,0.00
2022-07-28T03:12:12.525Z,0.00
2022-07-28T03:13:12.607Z,0.00
2022-07-28T03:14:12.959Z,0.00
2022-07-28T03:15:12.823Z,0.00
2022-07-28T03:16:11.891Z,0.00
2022-07-28T03:17:12.016Z,0.00
2022-07-28T03:18:12.108Z,0.00
2022-07-28T03:19:12.213Z,0.00
2022-07-28T03:20:12.329Z,0.00
2022-07-28T03:21:12.549Z,0.00
2022-07-28T03:22:12.550Z,0.00
2022-07-28T03:23:12.660Z,0.00
2022-07-28T03:24:12.070Z,0.00
2022-07-28T03:25:11.856Z,0.00
2022-07-28T03:26:11.966Z,0.00
2022-07-28T03:27:12.099Z,0.00
2022-07-28T03:28:12.197Z,0.00
2022-07-28T03:29:13.081Z,0.00
2022-07-28T03:30:12.382Z,0.00
2022-07-28T03:31:12.543Z,0.00
2022-07-28T03:32:12.583Z,0.00
2022-07-28T03:33:11.631Z,0.00
2022-07-28T03:34:12.238Z,0.00
2022-07-28T03:35:11.813Z,0.00
2022-07-28T03:36:11.909Z,0.00
2022-07-28T03:37:12.019Z,0.00
2022-07-28T03:38:12.246Z,0.00
2022-07-28T03:39:12.256Z,0.00
2022-07-28T03:40:13.301Z,0.00
2022-07-28T03:41:12.434Z,0.00
2022-07-28T03:42:11.483Z,0.00
2022-07-28T03:43:11.583Z,0.00
2022-07-28T03:44:12.188Z,0.00
2022-07-28T03:45:11.794Z,0.00
2022-07-28T03:46:13.430Z,0.00
2022-07-28T03:47:12.007Z,0.00
2022-07-28T03:48:12.107Z,0.00
2022-07-28T03:49:12.250Z,0.00
2022-07-28T03:50:12.340Z,0.00
2022-07-28T03:51:11.398Z,0.00
2022-07-28T03:52:11.503Z,0.00
2022-07-28T03:53:11.626Z,0.00
2022-07-28T03:54:12.089Z,0.00
2022-07-28T03:55:11.819Z,0.00
2022-07-28T03:56:12.908Z,0.00
2022-07-28T03:57:12.033Z,0.00
2022-07-28T03:58:12.123Z,0.00
2022-07-28T03:59:12.239Z,0.00
2022-07-28T04:00:11.275Z,0.00
2022-07-28T04:01:11.437Z,0.00
2022-07-28T04:02:11.487Z,0.00
2022-07-28T04:03:35.832Z,0.00
2022-07-28T04:04:13.071Z,0.00
2022-07-28T04:05:11.769Z,0.00
2022-07-28T04:06:11.868Z,0.00
2022-07-28T04:07:11.975Z,0.00
2022-07-28T04:08:12.214Z,0.00
2022-07-28T04:09:11.123Z,0.00
2022-07-28T04:10:11.258Z,0.00
2022-07-28T04:11:11.329Z,0.00
2022-07-28T04:12:11.416Z,0.00
2022-07-28T04:13:11.514Z,0.00
2022-07-28T04:14:16.507Z,0.00
2022-07-28T04:15:12.716Z,0.00
2022-07-28T04:16:11.944Z,0.00
2022-07-28T04:17:11.973Z,0.00
2022-07-28T04:18:11.035Z,0.00
2022-07-28T04:19:11.148Z,0.00
2022-07-28T04:20:11.245Z,0.00
2022-07-28T04:21:11.369Z,0.00
2022-07-28T04:22:11.438Z,5.62
2022-07-28T04:23:11.540Z,5.62
2022-07-28T04:24:11.608Z,5.62
2022-07-28T04:25:11.700Z,5.62
2022-07-28T04:26:11.787Z,5.62
2022-07-28T04:27:10.852Z,5.62
2022-07-28T04:28:10.929Z,5.62
2022-07-28T04:29:11.004Z,5.62
2022-07-28T04:30:11.080Z,5.62
2022-07-28T04:31:11.249Z,5.62
2022-07-28T04:32:11.287Z,5.62
2022-07-28T04:33:11.400Z,5.62
2022-07-28T04:34:12.882Z,5.62
2022-07-28T04:35:16.837Z,5.62
2022-07-28T04:36:11.727Z,5.62
2022-07-28T04:37:10.871Z,5.62
2022-07-28T04:38:11.010Z,5.62
2022-07-28T04:39:11.117Z,5.62
2022-07-28T04:40:11.248Z,5.62
2022-07-28T04:41:12.300Z,5.62
2022-07-28T04:42:11.508Z,5.62
2022-07-28T04:43:11.787Z,5.62
2022-07-28T04:44:10.876Z,5.62
2022-07-28T04:45:10.799Z,5.62
2022-07-28T04:46:14.954Z,5.62
2022-07-28T04:47:11.054Z,5.62
2022-07-28T04:48:11.149Z,5.62
2022-07-28T04:49:11.342Z,5.62
2022-07-28T04:50:11.398Z,5.62
2022-07-28T04:51:11.519Z,5.62
2022-07-28T04:52:10.571Z,5.62
2022-07-28T04:53:10.672Z,5.62
2022-07-28T04:54:11.265Z,5.62
2022-07-28T04:55:10.934Z,5.62
2022-07-28T04:56:11.018Z,5.62
2022-07-28T04:57:12.673Z,5.62
2022-07-28T04:58:11.245Z,5.62
2022-07-28T04:59:11.342Z,5.62
2022-07-28T05:00:10.411Z,5.62
2022-07-28T05:01:10.632Z,5.62
2022-07-28T05:02:10.632Z,5.62
2022-07-28T05:03:10.731Z,5.62
2022-07-28T05:04:11.005Z,5.62
2022-07-28T05:05:11.106Z,5.62
2022-07-28T05:06:11.105Z,5.62
2022-07-28T05:07:12.722Z,5.62
2022-07-28T05:08:11.843Z,5.62
2022-07-28T05:09:10.342Z,5.62
2022-07-28T05:10:10.421Z,5.62
2022-07-28T05:11:10.524Z,5.62
2022-07-28T05:12:10.632Z,5.62
2022-07-28T05:13:10.699Z,5.62
2022-07-28T05:14:12.564Z,5.62
2022-07-28T05:15:10.917Z,5.62
2022-07-28T05:16:11.116Z,5.62
2022-07-28T05:17:11.155Z,5.62
2022-07-28T05:18:10.249Z,11.25
2022-07-28T05:19:10.368Z,11.25
2022-07-28T05:20:10.491Z,11.25
2022-07-28T05:21:10.602Z,11.25
2022-07-28T05:22:10.730Z,11.25
2022-07-28T05:23:10.855Z,11.25
2022-07-28T05:24:10.372Z,16.88
2022-07-28T05:25:11.245Z,16.88
2022-07-28T05:26:10.388Z,16.88
2022-07-28T05:27:10.489Z,11.25
2022-07-28T05:28:10.599Z,11.25
2022-07-28T05:29:10.925Z,11.25
2022-07-28T05:30:10.781Z,11.25
2022-07-28T05:31:10.878Z,11.25
2022-07-28T05:32:16.410Z,11.25
2022-07-28T05:33:11.015Z,16.88
2022-07-28T05:34:10.099Z,11.25
2022-07-28T05:35:10.976Z,16.88
2022-07-28T05:36:10.172Z,16.88
2022-07-28T05:37:11.294Z,16.88
2022-07-28T05:38:11.087Z,16.88
2022-07-28T05:39:10.511Z,22.50
2022-07-28T05:40:10.646Z,22.50
2022-07-28T05:41:10.739Z,22.50
2022-07-28T05:42:10.883Z,22.50
2022-07-28T05:43:09.943Z,22.50
2022-07-28T05:44:10.026Z,22.50
2022-07-28T05:45:15.863Z,22.50
2022-07-28T05:46:11.332Z,22.50
2022-07-28T05:47:10.296Z,22.50
2022-07-28T05:48:10.357Z,22.50
2022-07-28T05:49:10.436Z,22.50
2022-07-28T05:50:10.509Z,22.50
2022-07-28T05:51:10.597Z,22.50
2022-07-28T05:52:10.697Z,22.50
2022-07-28T05:53:09.738Z,22.50
2022-07-28T05:54:09.813Z,22.50
2022-07-28T05:55:09.893Z,22.50
2022-07-28T05:56:09.972Z,22.50
2022-07-28T05:57:10.039Z,22.50
2022-07-28T05:58:11.137Z,22.50
2022-07-28T05:59:10.187Z,22.50
2022-07-28T06:00:10.266Z,22.50
2022-07-28T06:01:10.425Z,22.50
2022-07-28T06:02:11.029Z,22.50
2022-07-28T06:03:10.527Z,22.50
2022-07-28T06:04:27.798Z,22.50
2022-07-28T06:05:10.659Z,22.50
2022-07-28T06:06:14.694Z,22.50
2022-07-28T06:07:10.834Z,22.50
2022-07-28T06:08:09.929Z,22.50
2022-07-28T06:09:10.040Z,22.50
2022-07-28T06:10:10.164Z,22.50
2022-07-28T06:11:11.186Z,22.50
2022-07-28T06:12:10.311Z,22.50
2022-07-28T06:13:10.420Z,22.50
2022-07-28T06:14:09.485Z,22.50
2022-07-28T06:15:09.561Z,22.50
2022-07-28T06:16:13.478Z,22.50
2022-07-28T06:17:09.763Z,22.50
2022-07-28T06:18:09.860Z,22.50
2022-07-28T06:19:09.973Z,22.50
2022-07-28T06:20:10.069Z,22.50
2022-07-28T06:21:10.257Z,22.50
2022-07-28T06:22:10.280Z,28.12
2022-07-28T06:23:09.319Z,22.50
2022-07-28T06:24:09.418Z,28.12
2022-07-28T06:25:09.494Z,28.12
2022-07-28T06:26:09.686Z,22.50
2022-07-28T06:27:09.708Z,22.50
2022-07-28T06:28:09.827Z,28.12
2022-07-28T06:29:09.888Z,28.12
2022-07-28T06:30:10.006Z,28.12
2022-07-28T06:31:10.157Z,28.12
2022-07-28T06:32:10.250Z,28.12
2022-07-28T06:33:11.737Z,28.12
2022-07-28T06:34:10.627Z,28.12
2022-07-28T06:35:09.472Z,28.12
2022-07-28T06:36:09.555Z,28.12
2022-07-28T06:37:09.644Z,28.12
2022-07-28T06:38:09.742Z,28.12
2022-07-28T06:39:09.894Z,28.12
2022-07-28T06:40:09.961Z,28.12
2022-07-28T06:41:10.038Z,28.12
2022-07-28T06:42:09.074Z,28.12
2022-07-28T06:43:09.179Z,28.12
2022-07-28T06:44:09.274Z,28.12
2022-07-28T06:45:09.357Z,28.12
2022-07-28T06:46:10.482Z,28.12
2022-07-28T06:47:09.582Z,28.12
2022-07-28T06:48:09.638Z,28.12
2022-07-28T06:49:09.766Z,28.12
2022-07-28T06:50:26.097Z,28.12
2022-07-28T06:51:09.906Z,28.12
2022-07-28T06:52:09.061Z,28.12
2022-07-28T06:53:09.107Z,28.12
2022-07-28T06:54:11.402Z,28.12
2022-07-28T06:55:09.312Z,28.12
2022-07-28T06:56:13.704Z,28.12
2022-07-28T06:57:09.524Z,28.12
2022-07-28T06:58:09.588Z,28.12
2022-07-28T06:59:09.667Z,28.12
2022-07-28T07:00:09.745Z,28.12
2022-07-28T07:01:09.865Z,28.12
2022-07-28T07:02:08.864Z,28.12
2022-07-28T07:03:09.888Z,28.12
2022-07-28T07:04:09.082Z,28.12
2022-07-28T07:05:09.081Z,28.12
2022-07-28T07:06:09.158Z,28.12
2022-07-28T07:07:14.998Z,28.12
2022-07-28T07:08:10.307Z,28.12
2022-07-28T07:09:09.370Z,28.12
2022-07-28T07:10:09.467Z,28.12
2022-07-28T07:11:09.537Z,28.12
2022-07-28T07:12:09.637Z,28.12
2022-07-28T07:13:08.677Z,28.12
2022-07-28T07:14:08.779Z,28.12
2022-07-28T07:15:08.820Z,33.75
2022-07-28T07:16:10.018Z,33.75
2022-07-28T07:17:09.000Z,33.75
2022-07-28T07:18:09.087Z,33.75
2022-07-28T07:19:13.938Z,33.75
2022-07-28T07:20:10.276Z,33.75
2022-07-28T07:21:11.413Z,33.75
2022-07-28T07:22:09.399Z,33.75
2022-07-28T07:23:09.460Z,33.75
2022-07-28T07:24:08.516Z,33.75
2022-07-28T07:25:08.592Z,33.75
2022-07-28T07:26:08.627Z,33.75
2022-07-28T07:27:08.699Z,33.75
2022-07-28T07:28:08.782Z,33.75
2022-07-28T07:29:08.878Z,33.75
2022-07-28T07:30:08.960Z,33.75
2022-07-28T07:31:09.096Z,33.75
2022-07-28T07:32:11.007Z,33.75
2022-07-28T07:33:09.728Z,33.75
2022-07-28T07:34:09.345Z,33.75
2022-07-28T07:35:10.500Z,33.75
2022-07-28T07:36:09.528Z,33.75
2022-07-28T07:37:08.568Z,33.75
2022-07-28T07:38:09.677Z,33.75
2022-07-28T07:39:08.747Z,33.75
2022-07-28T07:40:08.825Z,33.75
2022-07-28T07:41:08.922Z,33.75
2022-07-28T07:42:08.973Z,33.75
2022-07-28T07:43:09.065Z,33.75
2022-07-28T07:44:09.134Z,33.75
2022-07-28T07:45:09.201Z,33.75
2022-07-28T07:46:08.291Z,33.75
2022-07-28T07:47:08.565Z,33.75
2022-07-28T07:48:08.401Z,33.75
2022-07-28T07:49:08.529Z,33.75
2022-07-28T07:50:08.535Z,33.75
2022-07-28T07:51:15.043Z,33.75
2022-07-28T07:52:09.726Z,33.75
2022-07-28T07:53:08.745Z,33.75
2022-07-28T07:54:09.938Z,33.75
2022-07-28T07:55:08.861Z,33.75
2022-07-28T07:56:09.102Z,33.75
2022-07-28T07:57:08.978Z,33.75
2022-07-28T07:58:09.064Z,33.75
2022-07-28T07:59:08.075Z,33.75
2022-07-28T08:00:28.856Z,33.75
2022-07-28T08:01:09.214Z,33.75
2022-07-28T08:02:08.296Z,33.75
2022-07-28T08:03:14.023Z,33.75
2022-07-28T08:04:08.470Z,33.75
2022-07-28T08:05:08.470Z,33.75
2022-07-28T08:06:08.482Z,33.75
2022-07-28T08:07:08.544Z,33.75
2022-07-28T08:08:08.587Z,33.75
2022-07-28T08:09:08.678Z,33.75
2022-07-28T08:10:08.695Z,39.38
2022-07-28T08:11:09.786Z,39.38
2022-07-28T08:12:08.777Z,39.38
2022-07-28T08:13:08.847Z,39.38
2022-07-28T08:14:09.297Z,39.38
2022-07-28T08:15:07.908Z,39.38
2022-07-28T08:16:07.989Z,39.38
2022-07-28T08:17:07.999Z,39.38
2022-07-28T08:18:09.070Z,39.38
2022-07-28T08:19:08.096Z,39.38
2022-07-28T08:20:08.160Z,39.38
2022-07-28T08:21:08.198Z,39.38
2022-07-28T08:22:09.279Z,39.38
2022-07-28T08:23:14.557Z,39.38
2022-07-28T08:24:08.347Z,39.38
2022-07-28T08:25:08.442Z,39.38
2022-07-28T08:26:09.418Z,39.38
2022-07-28T08:27:08.543Z,39.38
2022-07-28T08:28:08.583Z,39.38
2022-07-28T08:29:09.683Z,39.38
2022-07-28T08:30:08.709Z,39.38
2022-07-28T08:31:07.793Z,39.38
2022-07-28T08:32:07.821Z,39.38
2022-07-28T08:33:08.879Z,39.38
2022-07-28T08:34:31.502Z,39.38
2022-07-28T08:35:32.392Z,39.38
2022-07-28T08:36:09.961Z,39.38
2022-07-28T08:37:07.964Z,39.38
2022-07-28T08:38:09.039Z,39.38
2022-07-28T08:39:08.064Z,39.38
2022-07-28T08:40:08.113Z,39.38
2022-07-28T08:41:08.172Z,39.38
2022-07-28T08:42:08.207Z,39.38
2022-07-28T08:43:11.358Z,39.38
2022-07-28T08:44:08.321Z,39.38
2022-07-28T08:45:08.380Z,39.38
2022-07-28T08:46:08.490Z,39.38
2022-07-28T08:47:08.481Z,39.38
2022-07-28T08:48:09.695Z,39.38
2022-07-28T08:49:08.611Z,39.38
2022-07-28T08:50:07.593Z,39.38
2022-07-28T08:51:08.673Z,39.38
2022-07-28T08:52:07.670Z,39.38
2022-07-28T08:53:08.014Z,39.38
2022-07-28T08:54:08.794Z,39.38
2022-07-28T08:55:08.848Z,39.38
2022-07-28T08:56:08.939Z,39.38
2022-07-28T08:57:07.965Z,39.38
2022-07-28T08:58:09.057Z,39.38
2022-07-28T08:59:08.065Z,39.38
2022-07-28T09:00:11.221Z,39.38
2022-07-28T09:01:08.139Z,39.38
2022-07-28T09:02:08.330Z,39.38
2022-07-28T09:03:08.249Z,39.38
2022-07-28T09:04:08.236Z,39.38
2022-07-28T09:05:08.267Z,39.38
2022-07-28T09:06:08.294Z,39.38
2022-07-28T09:07:08.447Z,39.38
2022-07-28T09:08:08.376Z,39.38
2022-07-28T09:09:08.411Z,39.38
2022-07-28T09:10:08.435Z,39.38
2022-07-28T09:11:07.407Z,39.38
2022-07-28T09:12:08.500Z,39.38
2022-07-28T09:13:08.537Z,39.38
2022-07-28T09:14:08.526Z,39.38
2022-07-28T09:15:08.586Z,39.38
2022-07-28T09:16:09.744Z,39.38
2022-07-28T09:17:08.686Z,39.38
2022-07-28T09:18:09.759Z,39.38
2022-07-28T09:19:08.736Z,39.38
2022-07-28T09:20:11.575Z,39.38
2022-07-28T09:21:07.783Z,39.38
2022-07-28T09:22:07.833Z,39.38
2022-07-28T09:23:41.680Z,39.38
2022-07-28T09:24:09.922Z,39.38
2022-07-28T09:25:08.996Z,39.38
2022-07-28T09:26:11.339Z,39.38
2022-07-28T09:27:09.038Z,39.38
2022-07-28T09:28:09.122Z,39.38
2022-07-28T09:29:08.081Z,39.38
2022-07-28T09:30:09.159Z,39.38
2022-07-28T09:31:08.213Z,45.00
2022-07-28T09:32:08.316Z,45.00
2022-07-28T09:33:09.258Z,45.00
2022-07-28T09:34:10.341Z,45.00
2022-07-28T09:35:08.342Z,39.38
2022-07-28T09:36:08.355Z,39.38
2022-07-28T09:37:08.396Z,45.00
2022-07-28T09:38:08.441Z,39.38
2022-07-28T09:39:12.310Z,45.00
2022-07-28T09:40:10.623Z,45.00
2022-07-28T09:41:08.555Z,45.00
2022-07-28T09:42:08.628Z,45.00
2022-07-28T09:43:08.659Z,45.00
2022-07-28T09:44:08.685Z,45.00
2022-07-28T09:45:25.573Z,45.00
2022-07-28T09:46:07.747Z,45.00
2022-07-28T09:47:08.990Z,45.00
2022-07-28T09:48:09.066Z,45.00
2022-07-28T09:49:08.017Z,39.38
2022-07-28T09:50:10.067Z,45.00
2022-07-28T09:51:08.965Z,45.00
2022-07-28T09:52:07.956Z,45.00
2022-07-28T09:53:09.026Z,39.38
2022-07-28T09:54:09.080Z,45.00
2022-07-28T09:55:08.046Z,45.00
2022-07-28T09:56:09.153Z,45.00
2022-07-28T09:57:08.104Z,45.00
2022-07-28T09:58:08.126Z,39.38
2022-07-28T09:59:09.155Z,39.38
2022-07-28T10:00:08.197Z,39.38
2022-07-28T10:01:08.413Z,39.38
2022-07-28T10:02:08.311Z,45.00
2022-07-28T10:03:09.416Z,45.00
2022-07-28T10:04:09.391Z,45.00
2022-07-28T10:05:08.346Z,45.00
2022-07-28T10:06:09.411Z,45.00
2022-07-28T10:07:08.415Z,45.00
2022-07-28T10:08:08.417Z,45.00
2022-07-28T10:09:07.418Z,45.00
2022-07-28T10:10:11.596Z,45.00
2022-07-28T10:11:08.549Z,45.00
2022-07-28T10:12:08.581Z,45.00
2022-07-28T10:13:08.599Z,45.00
2022-07-28T10:14:08.654Z,45.00
2022-07-28T10:15:08.671Z,45.00
2022-07-28T10:16:09.841Z,45.00
2022-07-28T10:17:08.747Z,45.00
2022-07-28T10:18:08.769Z,45.00
2022-07-28T10:19:07.757Z,45.00
2022-07-28T10:20:08.825Z,45.00
2022-07-28T10:21:08.863Z,45.00
2022-07-28T10:22:08.932Z,45.00
2022-07-28T10:23:10.994Z,45.00
2022-07-28T10:24:07.905Z,45.00
2022-07-28T10:25:08.971Z,45.00
2022-07-28T10:26:13.075Z,45.00
2022-07-28T10:27:09.050Z,45.00
2022-07-28T10:28:09.114Z,45.00
2022-07-28T10:29:08.089Z,45.00
2022-07-28T10:30:08.075Z,45.00
2022-07-28T10:31:08.166Z,45.00
2022-07-28T10:32:09.078Z,45.00
2022-07-28T10:33:10.271Z,45.00
2022-07-28T10:34:10.879Z,45.00
2022-07-28T10:35:09.220Z,45.00
2022-07-28T10:36:08.197Z,45.00
2022-07-28T10:37:09.225Z,45.00
2022-07-28T10:38:08.219Z,45.00
2022-07-28T10:39:09.465Z,45.00
2022-07-28T10:40:11.049Z,45.00
2022-07-28T10:41:08.246Z,45.00
2022-07-28T10:42:08.249Z,45.00
2022-07-28T10:43:08.265Z,45.00
2022-07-28T10:44:08.287Z,45.00
2022-07-28T10:45:08.585Z,45.00
2022-07-28T10:46:11.845Z,45.00
2022-07-28T10:47:07.298Z,45.00
2022-07-28T10:48:09.352Z,45.00
2022-07-28T10:49:09.921Z,45.00
2022-07-28T10:50:08.358Z,45.00
2022-07-28T10:51:08.409Z,45.00
2022-07-28T10:52:15.504Z,45.00
2022-07-28T10:53:09.409Z,45.00
2022-07-28T10:54:08.440Z,50.62
2022-07-28T10:55:08.641Z,45.00
2022-07-28T10:56:08.497Z,45.00
2022-07-28T10:57:08.507Z,45.00
2022-07-28T10:58:11.138Z,45.00
2022-07-28T10:59:07.471Z,45.00
2022-07-28T11:00:13.233Z,45.00
2022-07-28T11:01:10.665Z,45.00
2022-07-28T11:02:09.819Z,45.00
2022-07-28T11:03:11.789Z,45.00
2022-07-28T11:04:07.539Z,45.00
2022-07-28T11:05:07.600Z,45.00
2022-07-28T11:06:06.585Z,45.00
2022-07-28T11:07:06.620Z,45.00
2022-07-28T11:08:06.309Z,45.00
2022-07-28T11:09:05.608Z,45.00
2022-07-28T11:10:05.633Z,45.00
2022-07-28T11:11:09.046Z,45.00
2022-07-28T11:12:05.688Z,45.00
2022-07-28T11:13:05.705Z,50.62
2022-07-28T11:14:06.766Z,50.62
2022-07-28T11:15:18.660Z,45.00
2022-07-28T11:16:06.792Z,50.62
2022-07-28T11:17:05.901Z,50.62
2022-07-28T11:18:06.835Z,45.00
2022-07-28T11:19:07.981Z,45.00
2022-07-28T11:21:07.986Z,45.00
2022-07-28T11:22:05.940Z,45.00
2022-07-28T11:23:05.962Z,45.00
2022-07-28T11:24:05.980Z,45.00
2022-07-28T11:25:19.483Z,45.00
2022-07-28T11:26:06.993Z,50.62
2022-07-28T11:27:05.976Z,50.62
2022-07-28T11:28:05.979Z,50.62
2022-07-28T11:29:05.975Z,50.62
2022-07-28T11:30:05.990Z,50.62
2022-07-28T11:31:06.082Z,50.62
2022-07-28T11:32:06.768Z,50.62
2022-07-28T11:33:06.038Z,50.62
2022-07-28T11:34:06.056Z,50.62
2022-07-28T11:35:06.061Z,33.75
2022-07-28T11:36:06.079Z,39.38
2022-07-28T11:37:06.078Z,45.00
2022-07-28T11:38:06.257Z,50.62
2022-07-28T11:39:06.087Z,50.62
2022-07-28T11:40:06.099Z,50.62
2022-07-28T11:41:06.100Z,50.62
2022-07-28T11:42:06.128Z,50.62
2022-07-28T11:43:06.142Z,50.62
2022-07-28T11:44:06.310Z,50.62
2022-07-28T11:45:05.114Z,50.62
2022-07-28T11:46:05.324Z,50.62
2022-07-28T11:47:06.120Z,50.62
2022-07-28T11:48:05.151Z,50.62
2022-07-28T11:49:05.224Z,50.62
2022-07-28T11:50:06.687Z,50.62
2022-07-28T11:51:05.203Z,50.62
2022-07-28T11:52:05.178Z,56.25
2022-07-28T11:53:05.150Z,56.25
2022-07-28T11:54:05.173Z,56.25
2022-07-28T11:55:05.193Z,50.62
2022-07-28T11:56:06.304Z,39.38
2022-07-28T11:57:05.194Z,45.00
2022-07-28T11:58:05.199Z,50.62
2022-07-28T11:59:05.188Z,50.62
2022-07-28T12:00:07.145Z,39.38
2022-07-28T12:01:05.208Z,33.75
2022-07-28T12:02:07.001Z,33.75
2022-07-28T12:03:05.226Z,33.75
2022-07-28T12:04:05.228Z,33.75
2022-07-28T12:05:06.332Z,39.38
2022-07-28T12:06:05.273Z,39.38
2022-07-28T12:07:05.283Z,56.25
2022-07-28T12:08:06.299Z,50.62
2022-07-28T12:09:05.307Z,56.25
2022-07-28T12:10:05.300Z,50.62
2022-07-28T12:11:05.304Z,56.25
2022-07-28T12:12:05.314Z,56.25
2022-07-28T12:13:05.300Z,56.25
2022-07-28T12:14:07.158Z,56.25
2022-07-28T12:15:07.346Z,56.25
2022-07-28T12:16:05.328Z,56.25
2022-07-28T12:17:05.389Z,50.62
2022-07-28T12:18:05.335Z,56.25
2022-07-28T12:19:05.401Z,50.62
2022-07-28T12:20:06.266Z,45.00
2022-07-28T12:21:06.417Z,50.62
2022-07-28T12:22:05.441Z,45.00
2022-07-28T12:23:05.470Z,56.25
2022-07-28T12:24:05.512Z,45.00
2022-07-28T12:25:05.487Z,45.00
2022-07-28T12:26:10.197Z,45.00
2022-07-28T12:27:05.520Z,45.00
2022-07-28T12:28:05.553Z,50.62
2022-07-28T12:29:08.384Z,45.00
2022-07-28T12:30:05.509Z,45.00
2022-07-28T12:31:04.513Z,45.00
2022-07-28T12:32:07.025Z,50.62
2022-07-28T12:33:04.516Z,45.00
2022-07-28T12:34:05.525Z,45.00
2022-07-28T12:35:05.494Z,50.62
2022-07-28T12:36:05.452Z,45.00
2022-07-28T12:37:05.444Z,45.00
2022-07-28T12:38:06.337Z,50.62
2022-07-28T12:39:09.493Z,50.62
2022-07-28T12:40:05.381Z,50.62
2022-07-28T12:41:04.381Z,50.62
2022-07-28T12:42:05.401Z,50.62
2022-07-28T12:43:05.373Z,50.62
2022-07-28T12:44:08.544Z,50.62
2022-07-28T12:45:04.333Z,50.62
2022-07-28T12:46:06.366Z,50.62
2022-07-28T12:47:05.306Z,50.62
2022-07-28T12:48:05.266Z,50.62
2022-07-28T12:49:05.261Z,50.62
2022-07-28T12:50:07.347Z,50.62
2022-07-28T12:51:05.166Z,50.62
2022-07-28T12:52:05.136Z,56.25
2022-07-28T12:53:05.109Z,50.62
2022-07-28T12:54:05.056Z,61.88
2022-07-28T12:55:05.007Z,61.88
2022-07-28T12:56:06.308Z,61.88
2022-07-28T12:57:04.941Z,56.25
2022-07-28T12:58:04.898Z,45.00
2022-07-28T12:59:04.887Z,39.38
2022-07-28T13:00:04.816Z,39.38
2022-07-28T13:01:04.801Z,39.38
2022-07-28T13:02:06.275Z,39.38
2022-07-28T13:03:04.637Z,39.38